sensor_id;sensor_type;location;lat;lon;timestamp;P1;durP1;ratioP1;P2;durP2;ratioP2
42972;SDS011;28610;51.214;6.962;2023-05-21T00:01:06;20.90;;;12.37;;
42972;SDS011;28610;51.214;6.962;2023-05-21T00:03:52;19.77;;;12.93;;
42972;SDS011;28610;51.214;6.962;2023-05-21T00:06:38;21.90;;;12.37;;
42972;SDS011;28610;51.214;6.962;2023-05-21T00:09:25;22.30;;;12.53;;
42972;SDS011;28610;51.214;6.962;2023-05-21T00:12:10;21.57;;;12.00;;
42972;SDS011;28610;51.214;6.962;2023-05-21T00:14:56;21.87;;;12.57;;
42972;SDS011;28610;51.214;6.962;2023-05-21T00:17:42;20.47;;;12.23;;
42972;SDS011;28610;51.214;6.962;2023-05-21T00:20:28;22.43;;;12.50;;
42972;SDS011;28610;51.214;6.962;2023-05-21T00:23:14;22.37;;;12.37;;
42972;SDS011;28610;51.214;6.962;2023-05-21T00:26:02;20.20;;;11.97;;
42972;SDS011;28610;51.214;6.962;2023-05-21T00:28:48;21.10;;;11.83;;
42972;SDS011;28610;51.214;6.962;2023-05-21T00:31:33;22.33;;;11.57;;
42972;SDS011;28610;51.214;6.962;2023-05-21T00:34:19;20.67;;;12.63;;
42972;SDS011;28610;51.214;6.962;2023-05-21T00:37:05;19.67;;;12.00;;
42972;SDS011;28610;51.214;6.962;2023-05-21T00:39:52;20.53;;;11.97;;
42972;SDS011;28610;51.214;6.962;2023-05-21T00:42:39;21.10;;;12.67;;
42972;SDS011;28610;51.214;6.962;2023-05-21T00:45:24;20.70;;;12.30;;
42972;SDS011;28610;51.214;6.962;2023-05-21T00:48:10;19.17;;;12.50;;
42972;SDS011;28610;51.214;6.962;2023-05-21T00:50:57;19.27;;;11.83;;
42972;SDS011;28610;51.214;6.962;2023-05-21T00:53:43;21.00;;;11.60;;
42972;SDS011;28610;51.214;6.962;2023-05-21T00:56:29;20.03;;;12.57;;
42972;SDS011;28610;51.214;6.962;2023-05-21T00:59:16;23.83;;;13.67;;
42972;SDS011;28610;51.214;6.962;2023-05-21T01:02:02;22.60;;;12.07;;
42972;SDS011;28610;51.214;6.962;2023-05-21T01:04:49;22.17;;;12.33;;
42972;SDS011;28610;51.214;6.962;2023-05-21T01:07:35;20.97;;;12.63;;
42972;SDS011;28610;51.214;6.962;2023-05-21T01:10:22;20.37;;;12.80;;
42972;SDS011;28610;51.214;6.962;2023-05-21T01:13:08;27.07;;;13.80;;
42972;SDS011;28610;51.214;6.962;2023-05-21T01:15:55;24.63;;;13.33;;
42972;SDS011;28610;51.214;6.962;2023-05-21T01:18:41;23.47;;;13.03;;
42972;SDS011;28610;51.214;6.962;2023-05-21T01:21:27;20.93;;;13.33;;
42972;SDS011;28610;51.214;6.962;2023-05-21T01:24:15;21.70;;;13.13;;
42972;SDS011;28610;51.214;6.962;2023-05-21T01:27:01;21.50;;;13.70;;
42972;SDS011;28610;51.214;6.962;2023-05-21T01:29:49;22.07;;;13.60;;
42972;SDS011;28610;51.214;6.962;2023-05-21T01:32:36;22.97;;;14.47;;
42972;SDS011;28610;51.214;6.962;2023-05-21T01:35:25;22.63;;;13.47;;
42972;SDS011;28610;51.214;6.962;2023-05-21T01:38:12;22.30;;;14.20;;
42972;SDS011;28610;51.214;6.962;2023-05-21T01:41:01;25.80;;;13.97;;
42972;SDS011;28610;51.214;6.962;2023-05-21T01:43:47;25.67;;;14.27;;
42972;SDS011;28610;51.214;6.962;2023-05-21T01:46:33;23.17;;;14.60;;
42972;SDS011;28610;51.214;6.962;2023-05-21T01:49:19;22.43;;;14.13;;
42972;SDS011;28610;51.214;6.962;2023-05-21T01:52:06;22.83;;;14.07;;
42972;SDS011;28610;51.214;6.962;2023-05-21T01:54:52;22.07;;;13.83;;
42972;SDS011;28610;51.214;6.962;2023-05-21T01:57:39;24.07;;;13.87;;
42972;SDS011;28610;51.214;6.962;2023-05-21T02:00:25;26.37;;;14.13;;
42972;SDS011;28610;51.214;6.962;2023-05-21T02:03:12;23.90;;;14.23;;
42972;SDS011;28610;51.214;6.962;2023-05-21T02:05:59;27.20;;;14.17;;
42972;SDS011;28610;51.214;6.962;2023-05-21T02:08:44;22.63;;;14.30;;
42972;SDS011;28610;51.214;6.962;2023-05-21T02:11:31;23.20;;;14.23;;
42972;SDS011;28610;51.214;6.962;2023-05-21T02:14:18;25.83;;;13.40;;
42972;SDS011;28610;51.214;6.962;2023-05-21T02:17:04;22.67;;;14.47;;
42972;SDS011;28610;51.214;6.962;2023-05-21T02:19:50;24.27;;;14.90;;
42972;SDS011;28610;51.214;6.962;2023-05-21T02:22:36;24.03;;;14.73;;
42972;SDS011;28610;51.214;6.962;2023-05-21T02:25:22;22.47;;;14.27;;
42972;SDS011;28610;51.214;6.962;2023-05-21T02:28:07;24.13;;;14.47;;
42972;SDS011;28610;51.214;6.962;2023-05-21T02:30:54;25.43;;;14.30;;
42972;SDS011;28610;51.214;6.962;2023-05-21T02:33:40;23.27;;;14.47;;
42972;SDS011;28610;51.214;6.962;2023-05-21T02:36:26;22.50;;;13.70;;
42972;SDS011;28610;51.214;6.962;2023-05-21T02:39:16;25.23;;;14.30;;
42972;SDS011;28610;51.214;6.962;2023-05-21T02:42:02;26.23;;;14.97;;
42972;SDS011;28610;51.214;6.962;2023-05-21T02:44:48;23.20;;;14.70;;
42972;SDS011;28610;51.214;6.962;2023-05-21T02:47:36;23.80;;;14.47;;
42972;SDS011;28610;51.214;6.962;2023-05-21T02:50:21;28.83;;;15.10;;
42972;SDS011;28610;51.214;6.962;2023-05-21T02:53:07;25.90;;;14.40;;
42972;SDS011;28610;51.214;6.962;2023-05-21T02:55:53;22.77;;;14.63;;
42972;SDS011;28610;51.214;6.962;2023-05-21T02:58:39;24.63;;;13.90;;
42972;SDS011;28610;51.214;6.962;2023-05-21T03:01:24;23.10;;;14.53;;
42972;SDS011;28610;51.214;6.962;2023-05-21T03:04:11;25.17;;;14.37;;
42972;SDS011;28610;51.214;6.962;2023-05-21T03:06:57;23.97;;;14.47;;
42972;SDS011;28610;51.214;6.962;2023-05-21T03:09:44;22.60;;;14.50;;
42972;SDS011;28610;51.214;6.962;2023-05-21T03:12:30;27.27;;;14.63;;
42972;SDS011;28610;51.214;6.962;2023-05-21T03:15:16;23.80;;;14.40;;
42972;SDS011;28610;51.214;6.962;2023-05-21T03:18:06;28.47;;;15.20;;
42972;SDS011;28610;51.214;6.962;2023-05-21T03:20:53;23.07;;;14.07;;
42972;SDS011;28610;51.214;6.962;2023-05-21T03:23:41;24.00;;;14.70;;
42972;SDS011;28610;51.214;6.962;2023-05-21T03:26:26;25.17;;;14.40;;
42972;SDS011;28610;51.214;6.962;2023-05-21T03:29:12;23.67;;;14.17;;
42972;SDS011;28610;51.214;6.962;2023-05-21T03:31:59;24.43;;;14.33;;
42972;SDS011;28610;51.214;6.962;2023-05-21T03:34:45;22.83;;;14.53;;
42972;SDS011;28610;51.214;6.962;2023-05-21T03:37:32;25.57;;;14.60;;
42972;SDS011;28610;51.214;6.962;2023-05-21T03:40:17;22.73;;;15.00;;
42972;SDS011;28610;51.214;6.962;2023-05-21T03:43:04;24.33;;;14.27;;
42972;SDS011;28610;51.214;6.962;2023-05-21T03:45:50;25.10;;;14.67;;
42972;SDS011;28610;51.214;6.962;2023-05-21T03:48:35;23.63;;;14.03;;
42972;SDS011;28610;51.214;6.962;2023-05-21T03:51:21;22.47;;;14.47;;
42972;SDS011;28610;51.214;6.962;2023-05-21T03:54:08;22.83;;;14.13;;
42972;SDS011;28610;51.214;6.962;2023-05-21T03:56:54;22.10;;;14.03;;
42972;SDS011;28610;51.214;6.962;2023-05-21T03:59:39;22.93;;;14.07;;
42972;SDS011;28610;51.214;6.962;2023-05-21T04:02:25;24.30;;;14.33;;
42972;SDS011;28610;51.214;6.962;2023-05-21T04:05:11;21.83;;;13.43;;
42972;SDS011;28610;51.214;6.962;2023-05-21T04:07:57;22.77;;;14.40;;
42972;SDS011;28610;51.214;6.962;2023-05-21T04:10:43;24.90;;;14.33;;
42972;SDS011;28610;51.214;6.962;2023-05-21T04:13:29;21.03;;;13.43;;
42972;SDS011;28610;51.214;6.962;2023-05-21T04:16:15;23.23;;;13.70;;
42972;SDS011;28610;51.214;6.962;2023-05-21T04:19:01;20.93;;;13.27;;
42972;SDS011;28610;51.214;6.962;2023-05-21T04:21:47;19.63;;;12.90;;
42972;SDS011;28610;51.214;6.962;2023-05-21T04:24:32;23.30;;;13.67;;
42972;SDS011;28610;51.214;6.962;2023-05-21T04:27:21;23.97;;;13.50;;
42972;SDS011;28610;51.214;6.962;2023-05-21T04:30:08;20.17;;;13.50;;
42972;SDS011;28610;51.214;6.962;2023-05-21T04:32:53;21.73;;;13.97;;
42972;SDS011;28610;51.214;6.962;2023-05-21T04:35:40;21.47;;;13.40;;
42972;SDS011;28610;51.214;6.962;2023-05-21T04:38:27;22.87;;;13.53;;
42972;SDS011;28610;51.214;6.962;2023-05-21T04:41:12;22.00;;;13.60;;
42972;SDS011;28610;51.214;6.962;2023-05-21T04:44:02;21.20;;;12.83;;
42972;SDS011;28610;51.214;6.962;2023-05-21T04:46:48;20.40;;;13.20;;
42972;SDS011;28610;51.214;6.962;2023-05-21T04:49:35;20.83;;;13.03;;
42972;SDS011;28610;51.214;6.962;2023-05-21T04:52:20;20.80;;;12.83;;
42972;SDS011;28610;51.214;6.962;2023-05-21T04:55:07;22.47;;;13.67;;
42972;SDS011;28610;51.214;6.962;2023-05-21T04:57:53;21.03;;;13.50;;
42972;SDS011;28610;51.214;6.962;2023-05-21T05:00:40;20.10;;;12.87;;
42972;SDS011;28610;51.214;6.962;2023-05-21T05:03:28;21.03;;;12.93;;
42972;SDS011;28610;51.214;6.962;2023-05-21T05:06:14;21.57;;;12.87;;
42972;SDS011;28610;51.214;6.962;2023-05-21T05:09:00;21.27;;;13.17;;
42972;SDS011;28610;51.214;6.962;2023-05-21T05:11:47;19.27;;;12.47;;
42972;SDS011;28610;51.214;6.962;2023-05-21T05:14:32;20.27;;;13.17;;
42972;SDS011;28610;51.214;6.962;2023-05-21T05:17:20;21.03;;;13.60;;
42972;SDS011;28610;51.214;6.962;2023-05-21T05:20:06;21.93;;;12.93;;
42972;SDS011;28610;51.214;6.962;2023-05-21T05:22:52;24.37;;;13.23;;
42972;SDS011;28610;51.214;6.962;2023-05-21T05:25:38;20.23;;;13.23;;
42972;SDS011;28610;51.214;6.962;2023-05-21T05:28:23;20.80;;;14.10;;
42972;SDS011;28610;51.214;6.962;2023-05-21T05:31:09;20.10;;;13.00;;
42972;SDS011;28610;51.214;6.962;2023-05-21T05:33:56;19.03;;;12.60;;
42972;SDS011;28610;51.214;6.962;2023-05-21T05:36:42;19.83;;;13.53;;
42972;SDS011;28610;51.214;6.962;2023-05-21T05:39:27;23.77;;;14.47;;
42972;SDS011;28610;51.214;6.962;2023-05-21T05:42:13;24.20;;;14.37;;
42972;SDS011;28610;51.214;6.962;2023-05-21T05:44:58;19.10;;;13.40;;
42972;SDS011;28610;51.214;6.962;2023-05-21T05:47:44;22.77;;;13.90;;
42972;SDS011;28610;51.214;6.962;2023-05-21T05:50:31;22.33;;;14.23;;
42972;SDS011;28610;51.214;6.962;2023-05-21T05:53:17;21.47;;;14.10;;
42972;SDS011;28610;51.214;6.962;2023-05-21T05:56:03;22.17;;;14.13;;
42972;SDS011;28610;51.214;6.962;2023-05-21T05:58:48;19.93;;;13.57;;
42972;SDS011;28610;51.214;6.962;2023-05-21T06:01:34;21.67;;;14.03;;
42972;SDS011;28610;51.214;6.962;2023-05-21T06:04:19;23.17;;;14.13;;
42972;SDS011;28610;51.214;6.962;2023-05-21T06:07:06;20.23;;;13.33;;
42972;SDS011;28610;51.214;6.962;2023-05-21T06:09:52;22.33;;;13.47;;
42972;SDS011;28610;51.214;6.962;2023-05-21T06:12:37;21.43;;;13.93;;
42972;SDS011;28610;51.214;6.962;2023-05-21T06:15:23;21.17;;;14.33;;
42972;SDS011;28610;51.214;6.962;2023-05-21T06:18:09;24.00;;;14.83;;
42972;SDS011;28610;51.214;6.962;2023-05-21T06:20:55;22.83;;;14.33;;
42972;SDS011;28610;51.214;6.962;2023-05-21T06:23:42;20.53;;;13.87;;
42972;SDS011;28610;51.214;6.962;2023-05-21T06:26:27;22.63;;;14.23;;
42972;SDS011;28610;51.214;6.962;2023-05-21T06:29:13;20.77;;;14.33;;
42972;SDS011;28610;51.214;6.962;2023-05-21T06:31:59;21.17;;;14.60;;
42972;SDS011;28610;51.214;6.962;2023-05-21T06:34:45;22.67;;;14.73;;
42972;SDS011;28610;51.214;6.962;2023-05-21T06:37:30;21.03;;;14.10;;
42972;SDS011;28610;51.214;6.962;2023-05-21T06:40:17;21.43;;;13.77;;
42972;SDS011;28610;51.214;6.962;2023-05-21T06:43:04;22.23;;;13.77;;
42972;SDS011;28610;51.214;6.962;2023-05-21T06:45:49;19.90;;;14.00;;
42972;SDS011;28610;51.214;6.962;2023-05-21T06:48:35;22.77;;;13.90;;
42972;SDS011;28610;51.214;6.962;2023-05-21T06:51:20;23.90;;;14.80;;
42972;SDS011;28610;51.214;6.962;2023-05-21T06:54:06;23.43;;;14.23;;
42972;SDS011;28610;51.214;6.962;2023-05-21T06:56:53;20.50;;;13.93;;
42972;SDS011;28610;51.214;6.962;2023-05-21T06:59:38;21.57;;;13.87;;
42972;SDS011;28610;51.214;6.962;2023-05-21T07:02:24;20.33;;;13.30;;
42972;SDS011;28610;51.214;6.962;2023-05-21T07:05:10;23.57;;;13.53;;
42972;SDS011;28610;51.214;6.962;2023-05-21T07:07:55;21.50;;;13.67;;
42972;SDS011;28610;51.214;6.962;2023-05-21T07:10:41;17.87;;;12.30;;
42972;SDS011;28610;51.214;6.962;2023-05-21T07:13:28;17.17;;;12.03;;
42972;SDS011;28610;51.214;6.962;2023-05-21T07:16:14;18.08;;;11.95;;
42972;SDS011;28610;51.214;6.962;2023-05-21T07:19:00;17.50;;;12.15;;
42972;SDS011;28610;51.214;6.962;2023-05-21T07:21:46;19.38;;;12.15;;
42972;SDS011;28610;51.214;6.962;2023-05-21T07:24:31;17.13;;;11.93;;
42972;SDS011;28610;51.214;6.962;2023-05-21T07:27:17;17.77;;;12.30;;
42972;SDS011;28610;51.214;6.962;2023-05-21T07:30:05;17.00;;;11.55;;
42972;SDS011;28610;51.214;6.962;2023-05-21T07:32:51;17.88;;;11.60;;
42972;SDS011;28610;51.214;6.962;2023-05-21T07:35:37;15.85;;;11.10;;
42972;SDS011;28610;51.214;6.962;2023-05-21T07:38:23;16.42;;;10.80;;
42972;SDS011;28610;51.214;6.962;2023-05-21T07:41:09;17.00;;;9.25;;
42972;SDS011;28610;51.214;6.962;2023-05-21T07:43:55;15.90;;;11.15;;
42972;SDS011;28610;51.214;6.962;2023-05-21T07:46:43;18.77;;;11.55;;
42972;SDS011;28610;51.214;6.962;2023-05-21T07:49:28;15.77;;;11.35;;
42972;SDS011;28610;51.214;6.962;2023-05-21T07:52:14;16.35;;;11.50;;
42972;SDS011;28610;51.214;6.962;2023-05-21T07:54:59;17.33;;;11.93;;
42972;SDS011;28610;51.214;6.962;2023-05-21T07:57:45;16.13;;;10.95;;
42972;SDS011;28610;51.214;6.962;2023-05-21T08:00:36;15.02;;;9.73;;
42972;SDS011;28610;51.214;6.962;2023-05-21T08:03:28;15.85;;;10.70;;
42972;SDS011;28610;51.214;6.962;2023-05-21T08:06:14;16.60;;;10.60;;
42972;SDS011;28610;51.214;6.962;2023-05-21T08:09:00;16.38;;;11.25;;
42972;SDS011;28610;51.214;6.962;2023-05-21T08:11:45;16.63;;;10.88;;
42972;SDS011;28610;51.214;6.962;2023-05-21T08:14:31;15.88;;;11.18;;
42972;SDS011;28610;51.214;6.962;2023-05-21T08:17:16;18.58;;;10.80;;
42972;SDS011;28610;51.214;6.962;2023-05-21T08:20:04;17.00;;;11.30;;
42972;SDS011;28610;51.214;6.962;2023-05-21T08:22:50;20.15;;;12.15;;
42972;SDS011;28610;51.214;6.962;2023-05-21T08:25:37;16.98;;;11.27;;
42972;SDS011;28610;51.214;6.962;2023-05-21T08:28:23;17.35;;;11.68;;
42972;SDS011;28610;51.214;6.962;2023-05-21T08:31:10;19.40;;;11.63;;
42972;SDS011;28610;51.214;6.962;2023-05-21T08:33:55;16.98;;;11.77;;
42972;SDS011;28610;51.214;6.962;2023-05-21T08:36:42;17.58;;;11.10;;
42972;SDS011;28610;51.214;6.962;2023-05-21T08:39:28;17.10;;;11.60;;
42972;SDS011;28610;51.214;6.962;2023-05-21T08:42:14;17.52;;;11.45;;
42972;SDS011;28610;51.214;6.962;2023-05-21T08:45:04;16.15;;;10.52;;
42972;SDS011;28610;51.214;6.962;2023-05-21T08:47:53;15.18;;;10.65;;
42972;SDS011;28610;51.214;6.962;2023-05-21T08:50:39;18.33;;;11.88;;
42972;SDS011;28610;51.214;6.962;2023-05-21T08:53:26;16.90;;;11.32;;
42972;SDS011;28610;51.214;6.962;2023-05-21T08:56:12;16.55;;;11.13;;
42972;SDS011;28610;51.214;6.962;2023-05-21T08:58:58;18.02;;;11.68;;
42972;SDS011;28610;51.214;6.962;2023-05-21T09:01:44;20.17;;;12.27;;
42972;SDS011;28610;51.214;6.962;2023-05-21T09:04:29;19.95;;;12.20;;
42972;SDS011;28610;51.214;6.962;2023-05-21T09:07:17;18.70;;;11.90;;
42972;SDS011;28610;51.214;6.962;2023-05-21T09:10:05;18.77;;;12.40;;
42972;SDS011;28610;51.214;6.962;2023-05-21T09:12:52;17.38;;;11.88;;
42972;SDS011;28610;51.214;6.962;2023-05-21T09:15:38;18.75;;;12.18;;
42972;SDS011;28610;51.214;6.962;2023-05-21T09:18:24;16.80;;;11.70;;
42972;SDS011;28610;51.214;6.962;2023-05-21T09:21:23;18.58;;;12.10;;
42972;SDS011;28610;51.214;6.962;2023-05-21T09:24:09;18.17;;;12.90;;
42972;SDS011;28610;51.214;6.962;2023-05-21T09:26:57;17.20;;;11.77;;
42972;SDS011;28610;51.214;6.962;2023-05-21T09:29:43;20.52;;;11.20;;
42972;SDS011;28610;51.214;6.962;2023-05-21T09:32:29;16.35;;;11.73;;
42972;SDS011;28610;51.214;6.962;2023-05-21T09:35:14;17.92;;;11.75;;
42972;SDS011;28610;51.214;6.962;2023-05-21T09:38:00;18.23;;;11.85;;
42972;SDS011;28610;51.214;6.962;2023-05-21T09:40:45;18.30;;;12.20;;
42972;SDS011;28610;51.214;6.962;2023-05-21T09:43:32;17.17;;;11.65;;
42972;SDS011;28610;51.214;6.962;2023-05-21T09:46:19;16.10;;;11.73;;
42972;SDS011;28610;51.214;6.962;2023-05-21T09:49:05;18.83;;;12.40;;
42972;SDS011;28610;51.214;6.962;2023-05-21T09:51:53;18.17;;;12.38;;
42972;SDS011;28610;51.214;6.962;2023-05-21T09:54:39;16.38;;;10.88;;
42972;SDS011;28610;51.214;6.962;2023-05-21T09:57:25;18.60;;;12.07;;
42972;SDS011;28610;51.214;6.962;2023-05-21T10:00:17;18.70;;;11.57;;
42972;SDS011;28610;51.214;6.962;2023-05-21T10:03:04;18.27;;;11.63;;
42972;SDS011;28610;51.214;6.962;2023-05-21T10:05:54;19.88;;;12.70;;
42972;SDS011;28610;51.214;6.962;2023-05-21T10:08:41;18.13;;;12.00;;
42972;SDS011;28610;51.214;6.962;2023-05-21T10:11:29;18.27;;;12.40;;
42972;SDS011;28610;51.214;6.962;2023-05-21T10:14:15;17.88;;;11.68;;
42972;SDS011;28610;51.214;6.962;2023-05-21T10:17:04;15.35;;;11.05;;
42972;SDS011;28610;51.214;6.962;2023-05-21T10:19:50;17.73;;;12.65;;
42972;SDS011;28610;51.214;6.962;2023-05-21T10:22:37;21.40;;;13.32;;
42972;SDS011;28610;51.214;6.962;2023-05-21T10:25:23;16.48;;;11.65;;
42972;SDS011;28610;51.214;6.962;2023-05-21T10:28:09;18.92;;;12.95;;
42972;SDS011;28610;51.214;6.962;2023-05-21T10:30:56;19.58;;;12.30;;
42972;SDS011;28610;51.214;6.962;2023-05-21T10:33:43;19.27;;;12.50;;
42972;SDS011;28610;51.214;6.962;2023-05-21T10:36:29;17.98;;;12.25;;
42972;SDS011;28610;51.214;6.962;2023-05-21T10:39:15;19.67;;;12.57;;
42972;SDS011;28610;51.214;6.962;2023-05-21T10:42:05;17.02;;;11.80;;
42972;SDS011;28610;51.214;6.962;2023-05-21T10:45:05;18.90;;;12.55;;
42972;SDS011;28610;51.214;6.962;2023-05-21T10:51:13;18.77;;;12.18;;
42972;SDS011;28610;51.214;6.962;2023-05-21T10:57:06;18.17;;;12.95;;
42972;SDS011;28610;51.214;6.962;2023-05-21T10:59:54;21.45;;;12.82;;
42972;SDS011;28610;51.214;6.962;2023-05-21T11:02:42;19.42;;;12.63;;
42972;SDS011;28610;51.214;6.962;2023-05-21T11:08:32;23.05;;;13.57;;
42972;SDS011;28610;51.214;6.962;2023-05-21T11:14:30;20.35;;;12.93;;
42972;SDS011;28610;51.214;6.962;2023-05-21T11:17:34;20.60;;;13.73;;
42972;SDS011;28610;51.214;6.962;2023-05-21T11:20:20;19.77;;;13.52;;
42972;SDS011;28610;51.214;6.962;2023-05-21T11:23:06;20.48;;;13.68;;
42972;SDS011;28610;51.214;6.962;2023-05-21T11:26:00;21.38;;;13.98;;
42972;SDS011;28610;51.214;6.962;2023-05-21T11:28:48;21.83;;;13.07;;
42972;SDS011;28610;51.214;6.962;2023-05-21T11:31:34;22.25;;;13.80;;
42972;SDS011;28610;51.214;6.962;2023-05-21T11:34:23;20.67;;;14.00;;
42972;SDS011;28610;51.214;6.962;2023-05-21T11:37:25;20.67;;;13.70;;
42972;SDS011;28610;51.214;6.962;2023-05-21T11:40:16;23.30;;;14.10;;
42972;SDS011;28610;51.214;6.962;2023-05-21T11:43:03;20.00;;;13.50;;
42972;SDS011;28610;51.214;6.962;2023-05-21T11:45:49;23.30;;;14.27;;
42972;SDS011;28610;51.214;6.962;2023-05-21T11:48:36;25.02;;;15.88;;
42972;SDS011;28610;51.214;6.962;2023-05-21T11:51:22;20.88;;;14.40;;
42972;SDS011;28610;51.214;6.962;2023-05-21T11:54:08;19.77;;;14.15;;
42972;SDS011;28610;51.214;6.962;2023-05-21T11:56:54;23.48;;;13.70;;
42972;SDS011;28610;51.214;6.962;2023-05-21T11:59:41;20.15;;;13.20;;
42972;SDS011;28610;51.214;6.962;2023-05-21T12:02:29;19.30;;;13.32;;
42972;SDS011;28610;51.214;6.962;2023-05-21T12:05:15;19.30;;;12.82;;
42972;SDS011;28610;51.214;6.962;2023-05-21T12:08:01;21.92;;;14.32;;
42972;SDS011;28610;51.214;6.962;2023-05-21T12:10:46;20.40;;;13.82;;
42972;SDS011;28610;51.214;6.962;2023-05-21T12:13:32;26.73;;;17.98;;
42972;SDS011;28610;51.214;6.962;2023-05-21T12:16:20;25.73;;;14.90;;
42972;SDS011;28610;51.214;6.962;2023-05-21T12:19:06;22.40;;;13.77;;
42972;SDS011;28610;51.214;6.962;2023-05-21T12:21:52;23.30;;;15.65;;
42972;SDS011;28610;51.214;6.962;2023-05-21T12:24:37;20.45;;;13.50;;
42972;SDS011;28610;51.214;6.962;2023-05-21T12:27:23;22.17;;;13.98;;
42972;SDS011;28610;51.214;6.962;2023-05-21T12:30:10;22.55;;;14.70;;
42972;SDS011;28610;51.214;6.962;2023-05-21T12:32:58;23.20;;;15.35;;
42972;SDS011;28610;51.214;6.962;2023-05-21T12:35:45;21.92;;;14.88;;
42972;SDS011;28610;51.214;6.962;2023-05-21T12:38:32;22.15;;;13.52;;
42972;SDS011;28610;51.214;6.962;2023-05-21T12:41:20;22.75;;;14.10;;
42972;SDS011;28610;51.214;6.962;2023-05-21T12:44:06;20.67;;;14.23;;
42972;SDS011;28610;51.214;6.962;2023-05-21T12:46:52;20.65;;;13.38;;
42972;SDS011;28610;51.214;6.962;2023-05-21T12:49:39;20.17;;;13.85;;
42972;SDS011;28610;51.214;6.962;2023-05-21T12:52:25;22.75;;;14.32;;
42972;SDS011;28610;51.214;6.962;2023-05-21T12:55:11;24.50;;;14.77;;
42972;SDS011;28610;51.214;6.962;2023-05-21T12:58:01;23.20;;;14.70;;
42972;SDS011;28610;51.214;6.962;2023-05-21T13:00:47;21.10;;;14.88;;
42972;SDS011;28610;51.214;6.962;2023-05-21T13:03:33;23.95;;;14.57;;
42972;SDS011;28610;51.214;6.962;2023-05-21T13:06:20;23.33;;;15.07;;
42972;SDS011;28610;51.214;6.962;2023-05-21T13:09:05;24.70;;;15.27;;
42972;SDS011;28610;51.214;6.962;2023-05-21T13:11:51;21.63;;;14.73;;
42972;SDS011;28610;51.214;6.962;2023-05-21T13:14:37;24.63;;;14.05;;
42972;SDS011;28610;51.214;6.962;2023-05-21T13:17:22;23.40;;;15.05;;
42972;SDS011;28610;51.214;6.962;2023-05-21T13:20:09;23.25;;;14.10;;
42972;SDS011;28610;51.214;6.962;2023-05-21T13:22:57;23.50;;;15.65;;
42972;SDS011;28610;51.214;6.962;2023-05-21T13:25:42;23.08;;;15.25;;
42972;SDS011;28610;51.214;6.962;2023-05-21T13:28:28;21.98;;;14.75;;
42972;SDS011;28610;51.214;6.962;2023-05-21T13:31:14;23.27;;;15.32;;
42972;SDS011;28610;51.214;6.962;2023-05-21T13:33:59;22.38;;;14.60;;
42972;SDS011;28610;51.214;6.962;2023-05-21T13:36:45;23.88;;;13.93;;
42972;SDS011;28610;51.214;6.962;2023-05-21T13:39:32;24.48;;;14.10;;
42972;SDS011;28610;51.214;6.962;2023-05-21T13:42:18;22.35;;;14.38;;
42972;SDS011;28610;51.214;6.962;2023-05-21T13:45:04;21.80;;;13.90;;
42972;SDS011;28610;51.214;6.962;2023-05-21T13:47:50;26.23;;;14.57;;
42972;SDS011;28610;51.214;6.962;2023-05-21T13:50:35;19.30;;;14.57;;
42972;SDS011;28610;51.214;6.962;2023-05-21T13:53:22;20.83;;;13.85;;
42972;SDS011;28610;51.214;6.962;2023-05-21T13:56:08;25.65;;;15.27;;
42972;SDS011;28610;51.214;6.962;2023-05-21T13:58:55;20.92;;;14.90;;
42972;SDS011;28610;51.214;6.962;2023-05-21T14:01:40;23.10;;;14.95;;
42972;SDS011;28610;51.214;6.962;2023-05-21T14:04:26;21.80;;;15.60;;
42972;SDS011;28610;51.214;6.962;2023-05-21T14:07:13;22.65;;;15.23;;
42972;SDS011;28610;51.214;6.962;2023-05-21T14:09:59;25.50;;;15.27;;
42972;SDS011;28610;51.214;6.962;2023-05-21T14:12:46;23.50;;;15.27;;
42972;SDS011;28610;51.214;6.962;2023-05-21T14:15:32;25.15;;;15.77;;
42972;SDS011;28610;51.214;6.962;2023-05-21T14:18:17;20.13;;;14.55;;
42972;SDS011;28610;51.214;6.962;2023-05-21T14:21:03;21.38;;;14.60;;
42972;SDS011;28610;51.214;6.962;2023-05-21T14:23:49;20.58;;;14.65;;
42972;SDS011;28610;51.214;6.962;2023-05-21T14:26:35;20.52;;;14.05;;
42972;SDS011;28610;51.214;6.962;2023-05-21T14:29:23;22.08;;;15.20;;
42972;SDS011;28610;51.214;6.962;2023-05-21T14:32:08;20.80;;;14.63;;
42972;SDS011;28610;51.214;6.962;2023-05-21T14:34:54;24.75;;;15.63;;
42972;SDS011;28610;51.214;6.962;2023-05-21T14:37:40;24.67;;;16.00;;
42972;SDS011;28610;51.214;6.962;2023-05-21T14:40:26;22.67;;;15.88;;
42972;SDS011;28610;51.214;6.962;2023-05-21T14:43:11;26.33;;;15.95;;
42972;SDS011;28610;51.214;6.962;2023-05-21T14:45:58;23.08;;;16.02;;
42972;SDS011;28610;51.214;6.962;2023-05-21T14:48:43;21.23;;;14.65;;
42972;SDS011;28610;51.214;6.962;2023-05-21T14:51:29;23.27;;;13.80;;
42972;SDS011;28610;51.214;6.962;2023-05-21T14:54:15;23.95;;;15.48;;
42972;SDS011;28610;51.214;6.962;2023-05-21T14:57:00;25.35;;;15.13;;
42972;SDS011;28610;51.214;6.962;2023-05-21T14:59:46;21.75;;;15.15;;
42972;SDS011;28610;51.214;6.962;2023-05-21T15:02:33;24.85;;;15.70;;
42972;SDS011;28610;51.214;6.962;2023-05-21T15:05:19;24.95;;;16.10;;
42972;SDS011;28610;51.214;6.962;2023-05-21T15:08:05;25.55;;;15.18;;
42972;SDS011;28610;51.214;6.962;2023-05-21T15:10:52;21.38;;;14.75;;
42972;SDS011;28610;51.214;6.962;2023-05-21T15:13:37;23.90;;;16.10;;
42972;SDS011;28610;51.214;6.962;2023-05-21T15:16:24;24.13;;;14.90;;
42972;SDS011;28610;51.214;6.962;2023-05-21T15:19:11;24.85;;;15.15;;
42972;SDS011;28610;51.214;6.962;2023-05-21T15:21:57;20.65;;;15.05;;
42972;SDS011;28610;51.214;6.962;2023-05-21T15:24:43;23.10;;;15.65;;
42972;SDS011;28610;51.214;6.962;2023-05-21T15:27:28;22.40;;;14.32;;
42972;SDS011;28610;51.214;6.962;2023-05-21T15:30:14;22.05;;;14.95;;
42972;SDS011;28610;51.214;6.962;2023-05-21T15:33:00;22.13;;;14.82;;
42972;SDS011;28610;51.214;6.962;2023-05-21T15:35:47;20.60;;;13.93;;
42972;SDS011;28610;51.214;6.962;2023-05-21T15:38:32;21.02;;;13.43;;
42972;SDS011;28610;51.214;6.962;2023-05-21T15:41:18;21.00;;;13.70;;
42972;SDS011;28610;51.214;6.962;2023-05-21T15:44:05;23.05;;;13.63;;
42972;SDS011;28610;51.214;6.962;2023-05-21T15:46:51;21.52;;;13.82;;
42972;SDS011;28610;51.214;6.962;2023-05-21T15:49:37;19.63;;;13.30;;
42972;SDS011;28610;51.214;6.962;2023-05-21T15:52:24;22.15;;;13.70;;
42972;SDS011;28610;51.214;6.962;2023-05-21T15:55:09;23.20;;;14.07;;
42972;SDS011;28610;51.214;6.962;2023-05-21T15:57:56;20.38;;;13.80;;
42972;SDS011;28610;51.214;6.962;2023-05-21T16:00:42;18.80;;;13.50;;
42972;SDS011;28610;51.214;6.962;2023-05-21T16:03:27;20.30;;;13.05;;
42972;SDS011;28610;51.214;6.962;2023-05-21T16:06:13;18.67;;;13.57;;
42972;SDS011;28610;51.214;6.962;2023-05-21T16:09:00;19.15;;;13.57;;
42972;SDS011;28610;51.214;6.962;2023-05-21T16:11:45;18.63;;;12.85;;
42972;SDS011;28610;51.214;6.962;2023-05-21T16:14:31;19.88;;;13.80;;
42972;SDS011;28610;51.214;6.962;2023-05-21T16:17:17;22.75;;;13.45;;
42972;SDS011;28610;51.214;6.962;2023-05-21T16:20:03;19.85;;;12.68;;
42972;SDS011;28610;51.214;6.962;2023-05-21T16:22:49;21.52;;;13.90;;
42972;SDS011;28610;51.214;6.962;2023-05-21T16:25:36;21.77;;;14.18;;